Time;durP1;ratioP1;P1;durP2;ratioP2;P2;SDS_P1;SDS_P2;PMS_P1;PMS_P2;Temp;Humidity;BMP_temperature;BMP_pressure;BME280_temperature;BME280_humidity;BME280_pressure;Samples;Min_cycle;Max_cycle;Signal;HPM_P1;HPM_P2
2021/03/18 00:00:26;;;;;;;4.30;1.90;;;;;;;-4.40;100.00;101757.59;5016735;28;20100;-68
2021/03/18 00:02:53;;;;;;;3.17;1.83;;;;;;;-4.39;100.00;101755.91;5004357;28;20040;-66
2021/03/18 00:05:19;;;;;;;2.17;1.67;;;;;;;-4.41;100.00;101755.81;5024493;28;20061;-67
2021/03/18 00:07:46;;;;;;;4.47;1.93;;;;;;;-4.45;100.00;101755.56;5025048;28;20103;-67
2021/03/18 00:10:13;;;;;;;3.43;2.30;;;;;;;-4.49;100.00;101756.19;5003116;28;20100;-67
2021/03/18 00:12:39;;;;;;;1.97;1.67;;;;;;;-4.58;100.00;101748.81;5006777;28;20041;-67
2021/03/18 00:15:08;;;;;;;3.37;2.13;;;;;;;-4.61;100.00;101749.53;4991990;28;20046;-67
2021/03/18 00:17:34;;;;;;;4.00;2.60;;;;;;;-4.64;100.00;101745.84;4985319;28;20045;-67
2021/03/18 00:20:10;;;;;;;3.40;1.80;;;;;;;-4.67;100.00;101741.44;5008288;28;20041;-67
2021/03/18 00:22:40;;;;;;;3.40;2.27;;;;;;;-4.67;100.00;101737.97;4994214;28;20041;-67
2021/03/18 00:25:09;;;;;;;2.83;2.10;;;;;;;-4.70;100.00;101738.69;5023715;28;20506;-68
2021/03/18 00:27:35;;;;;;;2.33;2.00;;;;;;;-4.75;100.00;101742.66;4992791;28;20619;-67
2021/03/18 00:30:03;;;;;;;2.57;1.67;;;;;;;-4.78;100.00;101737.34;4990158;28;20083;-68
2021/03/18 00:32:29;;;;;;;3.47;2.33;;;;;;;-4.82;100.00;101733.69;4993350;28;20037;-66
2021/03/18 00:34:56;;;;;;;4.13;2.53;;;;;;;-4.85;100.00;101741.25;5002180;28;20046;-66
2021/03/18 00:37:22;;;;;;;3.33;2.57;;;;;;;-4.87;100.00;101740.28;5027713;28;20038;-66
2021/03/18 00:39:48;;;;;;;3.47;2.50;;;;;;;-4.88;100.00;101738.47;5023017;28;20045;-67
2021/03/18 00:42:14;;;;;;;3.63;2.83;;;;;;;-4.87;100.00;101736.81;5009962;28;20068;-67
2021/03/18 00:44:40;;;;;;;5.57;3.20;;;;;;;-4.89;100.00;101735.81;5024674;28;20045;-67
2021/03/18 00:47:06;;;;;;;4.77;2.67;;;;;;;-4.87;100.00;101732.53;5007262;28;20046;-66
2021/03/18 00:49:33;;;;;;;3.10;2.63;;;;;;;-4.86;100.00;101728.28;5003368;28;20161;-67
2021/03/18 00:51:59;;;;;;;3.53;2.30;;;;;;;-4.85;100.00;101719.75;5026400;28;20033;-68
2021/03/18 00:54:25;;;;;;;3.73;2.43;;;;;;;-4.82;100.00;101715.63;5002329;28;20442;-66
2021/03/18 00:56:51;;;;;;;3.27;2.13;;;;;;;-4.82;100.00;101714.75;4993828;28;20053;-67
2021/03/18 00:59:17;;;;;;;3.07;2.00;;;;;;;-4.78;100.00;101711.56;5026839;28;20539;-67
2021/03/18 01:01:43;;;;;;;3.80;2.47;;;;;;;-4.72;100.00;101719.63;5024704;28;20092;-67
2021/03/18 01:04:10;;;;;;;2.27;1.60;;;;;;;-4.64;100.00;101715.81;5020307;28;20044;-66
2021/03/18 01:06:37;;;;;;;3.63;1.90;;;;;;;-4.54;100.00;101718.13;5004817;28;20109;-67
2021/03/18 01:09:05;;;;;;;4.80;2.20;;;;;;;-4.46;100.00;101727.97;4993413;28;20049;-66
2021/03/18 01:11:35;;;;;;;3.30;1.97;;;;;;;-4.45;100.00;101716.88;5027062;28;20064;-67
2021/03/18 01:14:12;;;;;;;3.97;1.97;;;;;;;-4.43;100.00;101717.84;5023958;28;20040;-67
2021/03/18 01:16:41;;;;;;;2.77;1.67;;;;;;;-4.42;100.00;101723.09;5027439;28;20048;-67
2021/03/18 01:19:09;;;;;;;2.70;2.17;;;;;;;-4.39;100.00;101723.25;5026463;28;20527;-67
2021/03/18 01:21:47;;;;;;;2.97;1.97;;;;;;;-4.36;100.00;101723.44;5005010;28;20054;-67
2021/03/18 01:24:13;;;;;;;2.60;1.80;;;;;;;-4.34;100.00;101716.69;5017885;28;20414;-67
2021/03/18 01:26:41;;;;;;;5.20;2.43;;;;;;;-4.32;100.00;101714.19;5009674;28;20049;-67
2021/03/18 01:29:08;;;;;;;2.83;2.00;;;;;;;-4.28;100.00;101710.97;5024826;28;20088;-67
2021/03/18 01:31:35;;;;;;;2.53;1.87;;;;;;;-4.26;100.00;101711.94;5007806;28;20060;-66
2021/03/18 01:34:03;;;;;;;3.80;2.13;;;;;;;-4.25;100.00;101714.59;5005221;28;20455;-67
2021/03/18 01:36:31;;;;;;;2.67;1.90;;;;;;;-4.23;100.00;101704.38;4995256;28;20560;-68
2021/03/18 01:38:57;;;;;;;2.93;2.00;;;;;;;-4.20;100.00;101711.38;5006707;28;20120;-67
2021/03/18 01:41:25;;;;;;;3.30;2.10;;;;;;;-4.19;100.00;101710.59;5007765;28;20038;-67
2021/03/18 01:43:52;;;;;;;3.73;2.30;;;;;;;-4.17;100.00;101709.00;5028366;28;20046;-67
2021/03/18 01:46:18;;;;;;;5.37;2.90;;;;;;;-4.14;100.00;101709.16;5011310;28;20037;-67
2021/03/18 01:48:46;;;;;;;4.30;2.80;;;;;;;-4.11;100.00;101710.22;4990960;28;20153;-67
2021/03/18 01:51:14;;;;;;;5.20;3.10;;;;;;;-4.09;100.00;101702.56;5013849;28;20091;-67
2021/03/18 01:53:41;;;;;;;5.43;2.70;;;;;;;-4.04;100.00;101701.09;4996128;28;20515;-67
2021/03/18 01:56:08;;;;;;;3.53;2.83;;;;;;;-4.01;100.00;101701.28;4989857;28;20042;-67
2021/03/18 01:58:36;;;;;;;4.70;2.80;;;;;;;-3.97;100.00;101701.53;5007452;28;20053;-66
2021/03/18 02:01:07;;;;;;;5.77;3.47;;;;;;;-3.91;100.00;101695.81;5024643;28;20431;-67
2021/03/18 02:03:33;;;;;;;5.37;3.50;;;;;;;-3.85;100.00;101690.13;5010161;28;20041;-67
2021/03/18 02:05:59;;;;;;;5.50;3.33;;;;;;;-3.81;100.00;101686.88;5024766;28;20528;-67
2021/03/18 02:08:26;;;;;;;4.67;3.30;;;;;;;-3.76;100.00;101690.59;5028481;28;20076;-66
2021/03/18 02:10:52;;;;;;;6.47;3.23;;;;;;;-3.71;100.00;101686.56;5011482;28;20510;-67
2021/03/18 02:13:19;;;;;;;5.90;3.50;;;;;;;-3.66;100.00;101689.41;5014322;28;20042;-67
2021/03/18 02:15:52;;;;;;;5.07;2.83;;;;;;;-3.62;100.00;101687.03;5025064;28;20442;-67
2021/03/18 02:18:53;;;;;;;5.45;3.10;;;;;;;-3.59;100.00;101674.31;5027459;28;20092;-67
2021/03/18 02:21:37;;;;;;;4.93;2.70;;;;;;;-3.58;100.00;101681.25;5024745;28;20037;-67
2021/03/18 02:24:22;;;;;;;3.50;2.72;;;;;;;-3.56;100.00;101676.16;5029791;28;20053;-69
2021/03/18 02:27:07;;;;;;;;;;;;;;;-3.56;100.00;101681.31;5030461;28;20041;-68
2021/03/18 02:29:51;;;;;;;4.32;2.50;;;;;;;-3.54;100.00;101682.28;5025327;28;19933;-69
2021/03/18 02:32:20;;;;;;;4.72;2.30;;;;;;;-3.52;100.00;101678.09;5009282;28;20088;-69
2021/03/18 02:35:11;;;;;;;3.33;2.50;;;;;;;-3.50;100.00;101677.38;5009083;28;20045;-68
2021/03/18 02:37:40;;;;;;;4.30;2.50;;;;;;;-3.49;100.00;101673.09;5010646;28;20092;-68
2021/03/18 02:40:19;;;;;;;3.50;2.47;;;;;;;-3.46;100.00;101675.81;5000212;28;20666;-69
2021/03/18 02:42:50;;;;;;;4.23;2.33;;;;;;;-3.43;100.00;101673.41;4998275;28;20403;-69
2021/03/18 02:45:17;;;;;;;4.37;2.27;;;;;;;-3.41;100.00;101667.50;5025929;28;20049;-69
2021/03/18 02:47:45;;;;;;;4.10;2.73;;;;;;;-3.37;100.00;101678.88;4994950;28;20037;-68
2021/03/18 02:50:12;;;;;;;4.50;2.07;;;;;;;-3.34;100.00;101667.84;5002825;28;20045;-69
2021/03/18 02:52:44;;;;;;;3.33;2.20;;;;;;;-3.32;100.00;101667.09;5029750;28;20561;-66
2021/03/18 02:55:11;;;;;;;4.40;2.40;;;;;;;-3.30;100.00;101670.63;5023239;28;20093;-69
2021/03/18 02:57:39;;;;;;;4.20;2.50;;;;;;;-3.26;100.00;101672.59;5024180;28;20037;-69
2021/03/18 03:00:08;;;;;;;3.73;2.17;;;;;;;-3.25;100.00;101671.78;4991503;28;20105;-69
2021/03/18 03:02:35;;;;;;;4.57;2.53;;;;;;;-3.23;100.00;101670.16;5001191;28;20037;-69
2021/03/18 03:05:05;;;;;;;5.97;4.00;;;;;;;-3.18;100.00;101662.66;5023997;28;20046;-69
2021/03/18 03:07:31;;;;;;;4.67;3.37;;;;;;;-3.15;100.00;101666.25;4999603;28;20415;-68
2021/03/18 03:10:00;;;;;;;5.73;3.20;;;;;;;-3.12;100.00;101662.94;5006884;28;20129;-69
2021/03/18 03:12:29;;;;;;;4.40;2.83;;;;;;;-3.09;100.00;101659.63;5030204;28;20045;-69
2021/03/18 03:14:55;;;;;;;4.77;3.00;;;;;;;-3.06;100.00;101658.09;5029591;28;20060;-68
2021/03/18 03:17:23;;;;;;;5.53;2.77;;;;;;;-3.03;100.00;101659.94;5007161;28;20450;-69
2021/03/18 03:19:51;;;;;;;4.60;2.73;;;;;;;-3.03;100.00;101658.22;5020799;28;20041;-69
2021/03/18 03:22:18;;;;;;;5.03;2.80;;;;;;;-3.01;100.00;101664.38;5020073;28;20038;-68
2021/03/18 03:24:45;;;;;;;5.67;2.90;;;;;;;-2.99;100.00;101656.69;5010690;28;20073;-68
2021/03/18 03:27:11;;;;;;;4.73;2.63;;;;;;;-2.97;100.00;101655.97;5009326;28;20037;-68
2021/03/18 03:29:40;;;;;;;4.97;3.23;;;;;;;-2.96;100.00;101662.91;5027635;28;20044;-68
2021/03/18 03:32:08;;;;;;;5.83;3.10;;;;;;;-2.94;100.00;101660.41;4993302;28;20061;-69
2021/03/18 03:34:35;;;;;;;4.63;2.93;;;;;;;-2.95;100.00;101662.09;4993141;28;20052;-68
2021/03/18 03:37:02;;;;;;;4.60;2.67;;;;;;;-2.93;100.00;101651.84;4991224;28;20045;-68
2021/03/18 03:39:28;;;;;;;5.23;3.23;;;;;;;-2.92;100.00;101658.78;5021307;28;20033;-68
2021/03/18 03:41:54;;;;;;;3.83;2.67;;;;;;;-2.92;100.00;101654.50;5017248;28;20775;-68
2021/03/18 03:44:26;;;;;;;3.90;2.67;;;;;;;-2.91;100.00;101650.22;5017771;28;20037;-69
2021/03/18 03:46:53;;;;;;;4.63;2.80;;;;;;;-2.91;100.00;101643.34;5024276;28;20037;-68
2021/03/18 03:49:19;;;;;;;4.70;2.23;;;;;;;-2.90;100.00;101639.94;5009553;28;20050;-69
2021/03/18 03:51:56;;;;;;;4.53;2.93;;;;;;;-2.90;100.00;101647.69;5026664;28;20049;-68
2021/03/18 03:54:24;;;;;;;4.97;2.60;;;;;;;-2.91;100.00;101645.03;4993212;28;20038;-68
2021/03/18 03:56:58;;;;;;;4.10;3.07;;;;;;;-2.95;100.00;101643.97;4986039;28;20046;-69
2021/03/18 03:59:25;;;;;;;3.53;2.67;;;;;;;-2.96;100.00;101641.34;5027977;28;20045;-68
2021/03/18 04:01:54;;;;;;;4.40;2.80;;;;;;;-2.97;100.00;101640.44;5008175;28;20046;-68
2021/03/18 04:04:32;;;;;;;4.55;2.45;;;;;;;-3.00;100.00;101636.84;5006643;28;20062;-68
2021/03/18 04:07:01;;;;;;;4.23;2.73;;;;;;;-3.03;100.00;101634.06;5010816;28;20104;-69
2021/03/18 04:09:29;;;;;;;3.40;2.33;;;;;;;-3.05;100.00;101635.69;5010609;28;20041;-68
2021/03/18 04:11:56;;;;;;;3.90;2.53;;;;;;;-3.06;100.00;101641.69;5027004;28;20038;-69
2021/03/18 04:14:33;;;;;;;4.33;2.80;;;;;;;-3.07;100.00;101630.47;5036226;28;20521;-68
2021/03/18 04:17:07;;;;;;;5.00;3.17;;;;;;;-3.09;100.00;101629.50;5008897;28;20037;-68
2021/03/18 04:19:33;;;;;;;4.63;2.80;;;;;;;-3.10;100.00;101634.59;4993457;28;20718;-68
2021/03/18 04:22:00;;;;;;;5.47;3.20;;;;;;;-3.11;100.00;101628.56;5024911;28;20108;-68
2021/03/18 04:24:27;;;;;;;4.50;2.77;;;;;;;-3.11;100.00;101625.97;5026938;28;20160;-68
2021/03/18 04:26:54;;;;;;;5.53;3.40;;;;;;;-3.13;100.00;101624.97;4994507;28;20041;-69
2021/03/18 04:29:22;;;;;;;4.30;2.70;;;;;;;-3.10;100.00;101622.56;5003575;28;20036;-69
2021/03/18 04:31:48;;;;;;;4.77;3.17;;;;;;;-3.10;100.00;101627.75;5010971;28;20050;-69
2021/03/18 04:34:17;;;;;;;6.03;2.80;;;;;;;-3.10;100.00;101616.50;5006903;28;20052;-68
2021/03/18 04:36:44;;;;;;;4.87;3.10;;;;;;;-3.10;100.00;101619.09;5024020;28;20045;-69
2021/03/18 04:39:10;;;;;;;4.07;2.93;;;;;;;-3.10;100.00;101619.97;5026756;28;20080;-68
2021/03/18 04:41:39;;;;;;;4.33;2.73;;;;;;;-3.11;100.00;101618.22;5008530;28;20052;-69
2021/03/18 04:44:06;;;;;;;3.87;3.00;;;;;;;-3.12;100.00;101613.81;5010606;28;20060;-68
2021/03/18 04:46:34;;;;;;;6.87;3.10;;;;;;;-3.13;100.00;101618.09;5002960;28;20038;-69
2021/03/18 04:49:01;;;;;;;4.50;3.10;;;;;;;-3.13;100.00;101618.09;4986921;28;20042;-68
2021/03/18 04:51:27;;;;;;;6.87;3.10;;;;;;;-3.15;100.00;101618.84;5003065;28;20053;-69
2021/03/18 04:53:54;;;;;;;5.33;3.40;;;;;;;-3.17;100.00;101618.78;5020696;28;20041;-69
2021/03/18 04:56:20;;;;;;;4.77;3.13;;;;;;;-3.19;100.00;101615.25;5025018;28;20041;-68
2021/03/18 04:58:46;;;;;;;4.57;3.33;;;;;;;-3.20;100.00;101612.56;5018980;28;20045;-69
2021/03/18 05:01:13;;;;;;;5.00;3.03;;;;;;;-3.20;100.00;101610.84;4982900;28;20034;-68
2021/03/18 05:03:41;;;;;;;5.70;3.43;;;;;;;-3.21;100.00;101618.53;5010809;28;20237;-68
2021/03/18 05:06:07;;;;;;;6.87;4.30;;;;;;;-3.20;100.00;101615.13;4991365;28;20052;-69
2021/03/18 05:08:34;;;;;;;4.97;3.03;;;;;;;-3.21;100.00;101608.19;5006184;28;20092;-68
2021/03/18 05:11:02;;;;;;;5.67;4.00;;;;;;;-3.22;100.00;101609.00;5010203;28;20037;-68
2021/03/18 05:13:29;;;;;;;6.03;3.27;;;;;;;-3.25;100.00;101616.63;5005780;28;20751;-68
2021/03/18 05:15:56;;;;;;;5.13;3.13;;;;;;;-3.26;100.00;101617.44;5023322;28;20060;-69
2021/03/18 05:18:24;;;;;;;5.97;3.23;;;;;;;-3.27;100.00;101618.25;4996655;28;20514;-71
2021/03/18 05:20:52;;;;;;;4.93;2.63;;;;;;;-3.28;100.00;101611.28;5026300;28;20088;-69
2021/03/18 05:23:18;;;;;;;5.33;3.30;;;;;;;-3.27;100.00;101613.09;5007788;28;20383;-68
2021/03/18 05:25:46;;;;;;;4.73;3.03;;;;;;;-3.25;100.00;101612.34;5022700;28;20104;-69
2021/03/18 05:28:13;;;;;;;4.53;2.80;;;;;;;-3.23;100.00;101613.28;5007219;28;20052;-68
2021/03/18 05:30:41;;;;;;;4.30;2.70;;;;;;;-3.21;100.00;101613.38;4988226;28;20440;-69
2021/03/18 05:33:08;;;;;;;5.40;3.17;;;;;;;-3.20;100.00;101609.97;5005558;28;20037;-68
2021/03/18 05:35:38;;;;;;;5.40;3.13;;;;;;;-3.17;100.00;101602.38;4996303;28;20566;-69
2021/03/18 05:38:05;;;;;;;5.40;3.10;;;;;;;-3.14;100.00;101615.47;5002970;28;20049;-69
2021/03/18 05:40:32;;;;;;;5.13;3.00;;;;;;;-3.09;100.00;101607.94;5011072;28;20053;-68
2021/03/18 05:42:59;;;;;;;6.30;3.33;;;;;;;-3.06;100.00;101603.81;4995539;28;20045;-69
2021/03/18 05:45:25;;;;;;;5.83;3.30;;;;;;;-3.01;100.00;101599.75;5024112;28;20054;-69
2021/03/18 05:47:55;;;;;;;6.10;3.60;;;;;;;-2.98;100.00;101597.31;4991400;28;20481;-69
2021/03/18 05:50:22;;;;;;;5.37;3.37;;;;;;;-2.96;100.00;101594.78;5014983;28;20060;-69
2021/03/18 05:52:49;;;;;;;5.87;3.50;;;;;;;-2.94;100.00;101593.19;5024785;28;20706;-69
2021/03/18 05:55:18;;;;;;;7.13;3.20;;;;;;;-2.91;100.00;101595.91;5013265;28;20033;-68
2021/03/18 05:57:46;;;;;;;6.90;3.70;;;;;;;-2.90;100.00;101589.94;5011901;28;20045;-68
2021/03/18 06:00:13;;;;;;;6.57;4.07;;;;;;;-2.91;100.00;101588.16;5010541;28;20048;-69
2021/03/18 06:02:40;;;;;;;6.33;3.67;;;;;;;-2.92;100.00;101591.56;5029579;28;20049;-68
2021/03/18 06:05:11;;;;;;;5.20;3.50;;;;;;;-2.95;100.00;101592.28;5016942;28;20398;-69
2021/03/18 06:07:39;;;;;;;7.03;3.50;;;;;;;-2.95;100.00;101587.09;5027748;28;20511;-68
2021/03/18 06:10:07;;;;;;;5.57;3.53;;;;;;;-2.91;100.00;101593.34;4986168;28;20046;-69
2021/03/18 06:12:36;;;;;;;6.07;3.57;;;;;;;-2.84;100.00;101591.13;5009686;28;20045;-68
2021/03/18 06:15:04;;;;;;;5.77;3.43;;;;;;;-2.72;100.00;101579.59;4995996;28;20526;-69
2021/03/18 06:17:32;;;;;;;7.20;4.13;;;;;;;-2.52;100.00;101583.09;5017915;28;20439;-69
2021/03/18 06:20:00;;;;;;;6.77;4.80;;;;;;;-2.27;100.00;101597.28;5008444;28;20044;-69
2021/03/18 06:22:41;;;;;;;11.10;6.90;;;;;;;-1.95;100.00;101584.88;5019157;28;20109;-69
2021/03/18 06:25:19;;;;;;;11.30;6.13;;;;;;;-1.70;100.00;101587.75;5028667;28;20115;-69
2021/03/18 06:27:47;;;;;;;11.33;7.07;;;;;;;-1.63;100.00;101585.44;5008355;28;20553;-69
2021/03/18 06:30:13;;;;;;;11.63;6.60;;;;;;;-1.56;100.00;101590.06;5025883;28;20100;-69
2021/03/18 06:32:39;;;;;;;11.10;7.00;;;;;;;-1.53;100.00;101583.28;5020398;28;20045;-69
2021/03/18 06:35:28;;;;;;;10.50;6.18;;;;;;;-1.50;100.00;101587.75;5011325;28;20046;-69
2021/03/18 06:37:54;;;;;;;10.30;5.87;;;;;;;-1.50;100.00;101587.75;5024599;28;20044;-69
2021/03/18 06:40:27;;;;;;;10.33;6.90;;;;;;;-1.47;100.00;101587.88;5010127;28;20033;-69
2021/03/18 06:42:59;;;;;;;12.03;6.20;;;;;;;-1.42;100.00;101579.47;5007135;28;20055;-69
2021/03/18 06:45:33;;;;;;;12.87;6.67;;;;;;;-1.35;100.00;101577.13;5027479;28;20040;-69
2021/03/18 06:48:07;;;;;;;9.33;5.67;;;;;;;-1.30;100.00;101579.09;5025615;28;20073;-69
2021/03/18 06:50:47;;;;;;;9.50;6.00;;;;;;;-1.25;100.00;101580.19;5024622;28;20045;-69
2021/03/18 06:53:21;;;;;;;9.37;5.37;;;;;;;-1.21;100.00;101581.19;5011031;28;20045;-69
2021/03/18 06:55:47;;;;;;;9.93;5.18;;;;;;;-1.20;100.00;101580.38;5023188;28;20633;-69
2021/03/18 06:58:16;;;;;;;9.87;6.10;;;;;;;-1.21;100.00;101568.22;5023839;28;20033;-69
2021/03/18 07:00:46;;;;;;;12.53;7.03;;;;;;;-1.22;100.00;101580.31;5010394;28;20537;-68
2021/03/18 07:03:29;;;;;;;13.83;7.77;;;;;;;-1.13;100.00;101567.72;5003042;28;20120;-68
2021/03/18 07:06:01;;;;;;;23.43;10.83;;;;;;;-0.25;100.00;101571.16;5016165;28;20589;-69
2021/03/18 07:08:33;;;;;;;16.60;8.90;;;;;;;0.98;100.00;101567.75;4984502;28;20049;-70
2021/03/18 07:11:00;;;;;;;13.23;7.00;;;;;;;1.78;100.00;101565.06;5004105;28;20447;-70
2021/03/18 07:13:29;;;;;;;14.73;7.73;;;;;;;2.03;100.00;101561.44;5008748;28;20434;-68
2021/03/18 07:15:57;;;;;;;11.30;6.40;;;;;;;2.49;99.95;101558.38;5030196;28;20052;-68
2021/03/18 07:18:23;;;;;;;12.10;6.73;;;;;;;2.97;98.07;101563.97;5026970;28;20710;-68
2021/03/18 07:21:00;;;;;;;10.70;6.40;;;;;;;3.35;93.67;101559.66;5021936;28;20126;-68
2021/03/18 07:23:43;;;;;;;11.03;6.27;;;;;;;3.84;91.36;101552.91;5010164;28;20046;-69
2021/03/18 07:26:20;;;;;;;10.30;7.60;;;;;;;3.95;88.01;101554.03;5009260;28;20042;-69
2021/03/18 07:28:48;;;;;;;9.97;5.60;;;;;;;4.05;86.43;101549.88;5025364;28;20076;-68
2021/03/18 07:31:15;;;;;;;13.60;7.50;;;;;;;3.82;85.02;101549.41;5026615;28;20128;-69
2021/03/18 07:33:43;;;;;;;9.63;6.90;;;;;;;3.70;85.96;101546.53;4993495;28;20502;-69
2021/03/18 07:36:11;;;;;;;11.27;8.13;;;;;;;3.51;86.76;101542.63;5013105;28;20047;-68
2021/03/18 07:38:38;;;;;;;11.20;7.03;;;;;;;3.28;87.88;101549.03;5003971;28;20450;-68
2021/03/18 07:41:11;;;;;;;11.27;6.20;;;;;;;3.09;88.80;101556.44;5012284;28;20565;-69
2021/03/18 07:43:39;;;;;;;12.23;7.57;;;;;;;2.99;88.46;101548.34;5024815;28;20054;-70
2021/03/18 07:46:08;;;;;;;16.77;8.80;;;;;;;2.71;89.41;101547.66;5024059;28;20041;-71
2021/03/18 07:48:34;;;;;;;15.73;8.27;;;;;;;2.61;90.66;101550.00;5008898;28;20044;-69
2021/03/18 07:51:01;;;;;;;16.10;9.20;;;;;;;2.50;92.15;101547.09;5013679;28;20040;-69
2021/03/18 07:53:28;;;;;;;18.37;9.87;;;;;;;2.42;92.32;101544.28;4997387;28;20050;-71
2021/03/18 07:55:54;;;;;;;19.47;10.43;;;;;;;2.39;92.20;101539.00;5014582;28;20049;-72
2021/03/18 07:58:39;;;;;;;16.60;10.73;;;;;;;2.39;93.71;101548.53;5010242;28;20061;-71
2021/03/18 08:01:05;;;;;;;16.48;9.18;;;;;;;2.41;94.42;101544.25;5001216;28;20041;-70
2021/03/18 08:03:32;;;;;;;21.60;9.50;;;;;;;2.38;93.92;101545.06;5005388;28;20466;-69
2021/03/18 08:06:00;;;;;;;15.23;8.77;;;;;;;2.31;93.67;101537.03;5004553;28;20048;-69
2021/03/18 08:08:39;;;;;;;16.67;9.87;;;;;;;2.36;94.19;101538.94;4992150;28;20099;-69
2021/03/18 08:11:11;;;;;;;19.00;12.33;;;;;;;2.26;94.09;101549.91;5021037;28;20037;-69
2021/03/18 08:13:39;;;;;;;15.57;9.00;;;;;;;2.42;93.80;101546.00;5005644;28;20045;-68
2021/03/18 08:16:07;;;;;;;20.37;11.33;;;;;;;2.18;94.48;101548.81;5009630;28;20041;-68
2021/03/18 08:18:36;;;;;;;17.23;9.97;;;;;;;2.19;96.08;101546.28;5011698;28;20579;-69
2021/03/18 08:21:05;;;;;;;21.17;10.93;;;;;;;2.28;96.75;101542.16;4992946;28;20037;-69
2021/03/18 08:23:31;;;;;;;19.93;10.33;;;;;;;2.42;96.28;101543.41;5029149;28;20043;-69
2021/03/18 08:26:20;;;;;;;19.17;10.13;;;;;;;2.30;96.23;101549.19;5029286;28;20049;-69
2021/03/18 08:28:55;;;;;;;18.83;9.50;;;;;;;2.55;95.92;101537.69;4996351;28;20042;-69
2021/03/18 08:31:31;;;;;;;18.80;10.73;;;;;;;2.76;95.46;101540.81;5008226;28;20495;-68
2021/03/18 08:34:02;;;;;;;20.07;10.30;;;;;;;2.74;94.29;101536.41;5009234;28;20041;-68
2021/03/18 08:36:32;;;;;;;15.87;9.13;;;;;;;2.76;93.91;101538.22;5007731;28;20041;-68
2021/03/18 08:39:00;;;;;;;18.77;10.27;;;;;;;2.51;93.26;101535.81;4993562;28;20037;-69
2021/03/18 08:41:32;;;;;;;20.60;10.43;;;;;;;2.57;94.09;101538.59;5011643;28;20099;-68
2021/03/18 08:44:22;;;;;;;19.20;10.90;;;;;;;2.72;93.93;101533.78;5007354;28;20038;-68
2021/03/18 08:47:01;;;;;;;20.50;9.97;;;;;;;2.82;93.66;101538.38;5026536;28;20395;-68
2021/03/18 08:49:31;;;;;;;18.50;9.70;;;;;;;3.04;93.87;101536.31;5026050;28;20113;-69
2021/03/18 08:52:00;;;;;;;18.77;11.33;;;;;;;3.00;90.57;101534.44;5021954;28;20634;-68
2021/03/18 08:54:38;;;;;;;21.33;11.93;;;;;;;3.10;91.74;101520.75;5011043;28;20041;-68
2021/03/18 08:57:25;;;;;;;17.73;9.57;;;;;;;2.92;91.67;101529.03;5023519;28;20531;-68
2021/03/18 08:59:59;;;;;;;19.40;10.77;;;;;;;3.22;93.40;101522.81;4989596;28;20067;-68
2021/03/18 09:02:34;;;;;;;18.65;9.38;;;;;;;3.52;91.03;101520.84;5000436;28;20042;-68
2021/03/18 09:05:09;;;;;;;19.50;10.20;;;;;;;3.63;87.72;101515.88;5024738;28;20041;-68
2021/03/18 09:07:35;;;;;;;16.77;10.73;;;;;;;4.13;89.40;101524.78;5024107;28;20069;-68
2021/03/18 09:10:18;;;;;;;16.33;8.93;;;;;;;4.71;87.69;101527.59;4992172;28;20048;-68
2021/03/18 09:12:45;;;;;;;17.70;10.27;;;;;;;4.78;84.06;101518.94;5025726;28;20121;-69
2021/03/18 09:15:18;;;;;;;17.43;10.27;;;;;;;5.17;86.79;101523.97;5022118;28;20534;-69
2021/03/18 09:17:46;;;;;;;14.50;8.57;;;;;;;5.57;82.04;101514.94;5005573;28;20045;-68
2021/03/18 09:20:14;;;;;;;16.17;9.40;;;;;;;5.91;80.29;101513.66;5008027;28;20041;-68
2021/03/18 09:22:40;;;;;;;22.60;10.57;;;;;;;6.20;78.85;101513.09;4992016;28;20041;-69
2021/03/18 09:25:07;;;;;;;13.73;8.30;;;;;;;6.37;76.57;101515.91;5025964;28;20140;-68
2021/03/18 09:27:40;;;;;;;15.17;9.13;;;;;;;6.36;77.63;101517.66;5007962;28;20064;-69
2021/03/18 09:30:21;;;;;;;15.60;10.57;;;;;;;6.02;74.56;101510.28;5024667;28;20029;-68
2021/03/18 09:32:48;;;;;;;14.57;8.03;;;;;;;5.82;76.70;101520.50;4994609;28;20163;-69
2021/03/18 09:35:15;;;;;;;15.67;8.90;;;;;;;5.67;78.79;101517.69;5026489;28;20128;-68
2021/03/18 09:37:55;;;;;;;15.17;8.93;;;;;;;5.55;79.47;101526.25;5022966;28;20096;-68
2021/03/18 09:40:33;;;;;;;17.27;9.77;;;;;;;5.03;79.90;101528.97;5008681;28;20665;-68
2021/03/18 09:42:59;;;;;;;15.83;8.93;;;;;;;5.05;79.62;101519.44;4999503;28;20037;-68
2021/03/18 09:45:26;;;;;;;15.73;9.23;;;;;;;4.96;80.59;101519.28;4994166;28;20048;-68
2021/03/18 09:47:52;;;;;;;13.57;8.53;;;;;;;5.04;83.14;101528.13;5021470;28;20086;-68
2021/03/18 09:50:23;;;;;;;20.37;10.27;;;;;;;4.82;80.69;101523.41;5028137;28;20037;-68
2021/03/18 09:52:50;;;;;;;14.97;9.27;;;;;;;4.72;81.05;101524.97;4979577;28;20092;-68
2021/03/18 09:55:18;;;;;;;17.53;10.57;;;;;;;4.81;82.12;101524.25;5011062;28;20044;-68
2021/03/18 09:57:44;;;;;;;18.53;9.80;;;;;;;5.08;81.46;101518.56;4994856;28;20044;-68
2021/03/18 10:00:11;;;;;;;16.37;8.77;;;;;;;5.13;79.61;101506.44;5025515;28;20045;-67
2021/03/18 10:02:39;;;;;;;16.77;9.47;;;;;;;5.38;81.29;101512.91;5005218;28;20124;-68
2021/03/18 10:05:06;;;;;;;19.23;9.97;;;;;;;5.65;81.56;101509.81;5004053;28;20092;-67
2021/03/18 10:07:34;;;;;;;15.50;8.03;;;;;;;5.75;77.15;101510.81;4991792;28;20049;-68
2021/03/18 10:10:04;;;;;;;14.40;9.53;;;;;;;5.75;75.51;101506.44;5006052;28;20053;-69
2021/03/18 10:12:31;;;;;;;16.83;8.10;;;;;;;5.46;75.21;101499.91;5009958;28;20056;-68
2021/03/18 10:15:03;;;;;;;13.07;8.23;;;;;;;5.54;77.89;101503.50;5029290;28;20822;-68
2021/03/18 10:17:33;;;;;;;15.40;9.47;;;;;;;5.51;78.01;101500.88;5028980;28;20398;-67
2021/03/18 10:20:07;;;;;;;17.90;9.03;;;;;;;5.48;76.67;101496.47;4993076;28;20040;-68
2021/03/18 10:22:36;;;;;;;14.50;8.40;;;;;;;5.77;79.48;101490.72;5028729;28;20503;-69
2021/03/18 10:25:19;;;;;;;15.43;8.20;;;;;;;6.08;78.45;101486.75;5012998;28;20045;-69
2021/03/18 10:27:51;;;;;;;12.63;7.57;;;;;;;6.03;75.32;101486.69;4997404;28;20116;-68
2021/03/18 10:30:19;;;;;;;14.67;8.80;;;;;;;5.57;75.22;101478.25;4995758;28;20041;-68
2021/03/18 10:33:13;;;;;;;12.77;7.70;;;;;;;5.87;75.42;101488.22;5016856;28;20056;-68
2021/03/18 10:35:46;;;;;;;15.23;9.75;;;;;;;5.95;73.29;101484.84;5031167;28;20079;-68
2021/03/18 10:38:18;;;;;;;13.63;8.47;;;;;;;5.87;74.52;101482.97;5003712;28;20446;-68
2021/03/18 10:40:46;;;;;;;15.33;9.07;;;;;;;5.78;73.91;101480.25;5026793;28;20048;-68
2021/03/18 10:43:25;;;;;;;14.27;8.70;;;;;;;5.72;75.14;101468.78;5028526;28;20613;-68
2021/03/18 10:46:02;;;;;;;12.60;7.87;;;;;;;5.96;77.16;101476.09;5004384;28;20515;-68
2021/03/18 10:48:30;;;;;;;12.77;8.20;;;;;;;6.28;78.10;101479.09;5011114;28;20264;-68
2021/03/18 10:51:12;;;;;;;13.90;8.63;;;;;;;6.29;75.94;101479.09;5023108;28;20044;-68
2021/03/18 10:53:40;;;;;;;11.30;7.47;;;;;;;6.51;75.36;101474.94;5020371;28;20419;-67
2021/03/18 10:56:12;;;;;;;12.73;8.17;;;;;;;6.34;72.24;101471.28;4993103;28;20124;-68
2021/03/18 10:58:42;;;;;;;12.90;8.00;;;;;;;6.31;73.58;101466.00;5009111;28;20038;-68
2021/03/18 11:01:08;;;;;;;11.90;7.27;;;;;;;6.45;71.10;101461.75;4993580;28;20128;-68
2021/03/18 11:03:40;;;;;;;12.70;7.77;;;;;;;6.25;73.26;101464.19;5008111;28;20681;-68
2021/03/18 11:06:21;;;;;;;12.93;8.23;;;;;;;6.32;71.93;101458.16;5005146;28;20045;-68
2021/03/18 11:08:54;;;;;;;13.77;7.10;;;;;;;6.43;71.81;101455.63;5008959;28;20490;-68
2021/03/18 11:11:23;;;;;;;14.68;9.05;;;;;;;6.40;73.48;101464.34;5025378;28;20450;-69
2021/03/18 11:13:50;;;;;;;14.73;8.03;;;;;;;6.29;72.02;101451.97;5002763;28;20044;-68
2021/03/18 11:16:23;;;;;;;13.13;7.60;;;;;;;6.14;73.58;101442.22;5010883;28;20137;-68
2021/03/18 11:18:57;;;;;;;14.83;8.73;;;;;;;6.53;71.39;101446.94;4979231;28;20049;-68
2021/03/18 11:21:27;;;;;;;15.10;7.82;;;;;;;7.48;69.48;101437.97;5021397;28;20054;-68
2021/03/18 11:23:55;;;;;;;11.63;7.43;;;;;;;8.65;60.68;101423.31;5008422;28;20045;-68
2021/03/18 11:26:24;;;;;;;11.10;6.22;;;;;;;10.21;62.34;101422.78;5009964;28;20092;-68
2021/03/18 11:28:54;;;;;;;10.30;6.45;;;;;;;11.85;59.77;101412.31;5022431;28;20052;-68
2021/03/18 11:31:21;;;;;;;8.63;5.60;;;;;;;12.77;54.65;101406.47;5027464;28;20053;-68